Time;durP1;ratioP1;P1;durP2;ratioP2;P2;SDS_P1;SDS_P2;PMS_P1;PMS_P2;Temp;Humidity;BMP_temperature;BMP_pressure;BME280_temperature;BME280_humidity;BME280_pressure;Samples;Min_cycle;Max_cycle;Signal;HPM_P1;HPM_P2
2022/10/14 00:01:47;;;;;;;9.17;6.97;;;14.30;99.90;;;;;;5073352;28;20478;-56
2022/10/14 00:04:14;;;;;;;10.50;7.00;;;14.30;99.90;;;;;;5071790;28;20923;-56
2022/10/14 00:06:42;;;;;;;7.90;7.00;;;14.30;99.90;;;;;;5073356;28;20452;-56
2022/10/14 00:09:10;;;;;;;11.50;6.63;;;14.30;99.90;;;;;;5073541;28;20543;-56
2022/10/14 00:11:38;;;;;;;7.60;6.43;;;14.40;99.90;;;;;;5070832;28;20448;-56
2022/10/14 00:14:07;;;;;;;11.43;6.30;;;14.30;99.90;;;;;;5072991;28;21071;-59
2022/10/14 00:16:38;;;;;;;8.03;6.10;;;14.30;99.90;;;;;;5073497;28;20551;-56
2022/10/14 00:19:06;;;;;;;10.13;7.80;;;14.30;99.90;;;;;;5071137;28;20451;-56
2022/10/14 00:21:35;;;;;;;7.77;7.07;;;14.30;99.90;;;;;;5073207;28;20453;-56
2022/10/14 00:24:02;;;;;;;7.50;6.80;;;14.30;99.90;;;;;;5072800;28;20867;-56
2022/10/14 00:26:31;;;;;;;7.53;6.50;;;14.20;99.90;;;;;;5070394;28;20444;-56
2022/10/14 00:28:59;;;;;;;10.07;6.80;;;14.20;99.90;;;;;;5072334;28;20460;-56
2022/10/14 00:31:26;;;;;;;9.03;7.10;;;14.20;99.90;;;;;;5072504;28;20798;-56
2022/10/14 00:33:55;;;;;;;17.43;7.30;;;14.20;99.90;;;;;;5070842;28;20530;-56
2022/10/14 00:36:24;;;;;;;9.93;7.60;;;14.20;99.90;;;;;;5072503;28;20437;-56
2022/10/14 00:38:52;;;;;;;7.93;7.13;;;14.10;99.90;;;;;;5072441;28;20444;-56
2022/10/14 00:41:22;;;;;;;9.00;7.47;;;14.20;99.90;;;;;;5070374;28;20540;-56
2022/10/14 00:43:56;;;;;;;8.50;7.70;;;14.20;99.90;;;;;;5072252;28;20453;-56
2022/10/14 00:46:25;;;;;;;9.17;7.70;;;14.10;99.90;;;;;;5071079;28;20934;-56
2022/10/14 00:48:54;;;;;;;9.50;8.07;;;14.20;99.90;;;;;;5072935;28;20429;-56
2022/10/14 00:51:22;;;;;;;10.67;7.93;;;14.30;99.90;;;;;;5072119;28;20440;-56
2022/10/14 00:53:49;;;;;;;8.60;7.60;;;14.20;99.90;;;;;;5071154;28;20476;-56
2022/10/14 00:56:22;;;;;;;7.90;7.10;;;14.20;99.90;;;;;;5072647;28;20452;-56
2022/10/14 00:58:49;;;;;;;8.63;7.00;;;14.20;99.90;;;;;;5072249;28;20436;-55
2022/10/14 01:01:16;;;;;;;11.13;8.63;;;14.20;99.90;;;;;;5070406;28;20455;-55
2022/10/14 01:03:43;;;;;;;13.07;7.93;;;14.20;99.90;;;;;;5071766;28;20468;-55
2022/10/14 01:06:19;;;;;;;14.60;8.00;;;14.30;99.90;;;;;;5071867;28;20459;-55
2022/10/14 01:08:53;;;;;;;8.47;7.53;;;14.30;99.90;;;;;;5069628;28;20424;-55
2022/10/14 01:11:30;;;;;;;11.43;8.00;;;14.20;99.90;;;;;;5072073;28;20424;-55
2022/10/14 01:14:05;;;;;;;8.53;7.17;;;14.30;99.90;;;;;;5071927;28;20467;-56
2022/10/14 01:16:43;;;;;;;8.43;7.60;;;14.30;99.90;;;;;;5070087;28;20452;-55
2022/10/14 01:19:27;;;;;;;11.23;7.53;;;14.30;99.90;;;;;;5071563;28;20443;-55
2022/10/14 01:22:02;;;;;;;10.53;8.60;;;14.20;99.90;;;;;;5072133;28;20468;-55
2022/10/14 01:24:44;;;;;;;12.10;8.87;;;14.20;99.90;;;;;;5070166;28;20918;-55
2022/10/14 01:27:19;;;;;;;8.20;7.40;;;14.30;99.90;;;;;;5071466;28;21045;-56
2022/10/14 01:30:06;;;;;;;9.53;7.70;;;14.30;99.90;;;;;;5071662;28;20432;-55
2022/10/14 01:32:41;;;;;;;9.50;7.37;;;14.20;99.90;;;;;;5068907;28;20835;-56
2022/10/14 01:35:14;;;;;;;10.50;8.27;;;14.20;99.90;;;;;;5071890;28;20471;-56
2022/10/14 01:37:47;;;;;;;9.80;7.57;;;14.20;99.90;;;;;;5071230;28;20436;-55
2022/10/14 01:40:22;;;;;;;8.67;7.80;;;14.10;99.90;;;;;;5068474;28;20432;-56
2022/10/14 01:42:51;;;;;;;10.03;8.03;;;14.10;99.90;;;;;;5071766;28;20986;-55
2022/10/14 01:45:23;;;;;;;10.53;8.60;;;14.10;99.90;;;;;;5071918;28;20452;-56
2022/10/14 01:47:51;;;;;;;9.07;8.30;;;14.10;99.90;;;;;;5069243;28;20695;-55
2022/10/14 01:50:25;;;;;;;8.40;7.80;;;14.20;99.90;;;;;;5071469;28;20428;-56
2022/10/14 01:52:58;;;;;;;9.17;7.00;;;14.20;99.90;;;;;;5071549;28;20989;-55
2022/10/14 01:55:28;;;;;;;9.07;7.77;;;14.10;99.90;;;;;;5070793;28;20475;-55
2022/10/14 01:57:57;;;;;;;11.47;7.13;;;14.10;99.90;;;;;;5071688;28;20448;-55
2022/10/14 02:00:28;;;;;;;10.97;7.40;;;14.10;99.90;;;;;;5070196;28;20448;-55
2022/10/14 02:02:55;;;;;;;7.67;6.93;;;14.10;99.90;;;;;;5071646;28;20468;-55
2022/10/14 02:05:29;;;;;;;10.57;8.20;;;14.10;99.90;;;;;;5070859;28;20974;-56
2022/10/14 02:08:01;;;;;;;10.43;7.20;;;14.10;99.90;;;;;;5069404;28;20433;-55
2022/10/14 02:10:38;;;;;;;7.70;7.00;;;14.10;99.90;;;;;;5071639;28;20438;-56
2022/10/14 02:13:19;;;;;;;10.40;7.10;;;14.10;99.90;;;;;;5071602;28;20854;-56
2022/10/14 02:15:59;;;;;;;7.33;6.53;;;14.10;99.90;;;;;;5069446;28;20464;-55
2022/10/14 02:18:35;;;;;;;8.43;7.17;;;14.20;99.90;;;;;;5071540;28;20425;-55
2022/10/14 02:21:11;;;;;;;9.00;6.33;;;14.00;99.90;;;;;;5071890;28;20436;-55
2022/10/14 02:23:43;;;;;;;8.73;6.83;;;14.00;99.90;;;;;;5068962;28;20464;-55
2022/10/14 02:26:11;;;;;;;7.73;6.70;;;14.00;99.90;;;;;;5071230;28;20436;-55
2022/10/14 02:28:40;;;;;;;8.30;7.50;;;14.00;99.90;;;;;;5071581;28;20445;-56
2022/10/14 02:31:13;;;;;;;10.53;7.13;;;14.00;99.90;;;;;;5068996;28;20463;-55
2022/10/14 02:33:43;;;;;;;12.77;7.10;;;13.90;99.90;;;;;;5071913;28;20491;-56
2022/10/14 02:36:15;;;;;;;8.80;6.67;;;13.80;99.90;;;;;;5071463;28;20494;-55
2022/10/14 02:38:43;;;;;;;12.97;7.63;;;13.70;99.90;;;;;;5069237;28;20439;-55
2022/10/14 02:41:14;;;;;;;10.50;7.13;;;13.70;99.90;;;;;;5070203;28;20444;-55
2022/10/14 02:43:41;;;;;;;9.17;6.77;;;13.80;99.90;;;;;;5070854;28;21130;-56
2022/10/14 02:46:09;;;;;;;8.23;6.53;;;13.80;99.90;;;;;;5068966;28;20824;-56
2022/10/14 02:48:37;;;;;;;10.03;6.43;;;13.80;99.90;;;;;;5071003;28;20476;-56
2022/10/14 02:51:04;;;;;;;7.37;6.70;;;13.80;99.90;;;;;;5072781;28;20478;-55
2022/10/14 02:53:31;;;;;;;8.03;6.30;;;13.80;99.90;;;;;;5072795;28;20468;-55
2022/10/14 02:55:58;;;;;;;6.77;6.07;;;13.80;99.90;;;;;;5074657;28;20480;-55
2022/10/14 02:58:25;;;;;;;6.10;5.20;;;13.70;99.90;;;;;;5074515;28;20543;-55
2022/10/14 03:00:52;;;;;;;9.50;5.83;;;13.70;99.90;;;;;;5072433;28;20453;-55
2022/10/14 03:03:21;;;;;;;9.33;6.73;;;13.80;99.90;;;;;;5074802;28;20482;-55
2022/10/14 03:05:48;;;;;;;8.03;6.63;;;13.80;99.90;;;;;;5072752;28;20441;-55
2022/10/14 03:08:16;;;;;;;8.50;6.40;;;13.90;99.90;;;;;;5072347;28;20448;-56
2022/10/14 03:10:46;;;;;;;8.53;7.10;;;13.90;99.90;;;;;;5074320;28;21070;-55
2022/10/14 03:13:14;;;;;;;8.83;5.80;;;13.90;99.90;;;;;;5074103;28;20468;-55
2022/10/14 03:15:41;;;;;;;10.60;6.27;;;13.90;99.90;;;;;;5072504;28;20472;-56
2022/10/14 03:18:08;;;;;;;8.23;6.30;;;13.90;99.90;;;;;;5074493;28;20471;-55
2022/10/14 03:20:36;;;;;;;9.20;6.17;;;13.90;99.90;;;;;;5074264;28;20450;-56
2022/10/14 03:23:03;;;;;;;7.90;7.17;;;13.90;99.90;;;;;;5072410;28;20970;-56
2022/10/14 03:25:30;;;;;;;11.63;7.30;;;13.90;99.90;;;;;;5074055;28;20444;-55
2022/10/14 03:27:57;;;;;;;7.97;6.00;;;13.80;99.90;;;;;;5074179;28;20456;-56
2022/10/14 03:30:24;;;;;;;15.77;7.80;;;13.70;99.90;;;;;;5072145;28;20441;-55
2022/10/14 03:32:52;;;;;;;11.40;8.37;;;13.80;99.90;;;;;;5073839;28;20476;-55
2022/10/14 03:35:19;;;;;;;10.23;8.10;;;13.80;99.90;;;;;;5074058;28;20468;-55
2022/10/14 03:37:47;;;;;;;13.03;7.73;;;13.80;99.90;;;;;;5071976;28;20455;-56
2022/10/14 03:40:14;;;;;;;11.33;8.70;;;13.80;99.90;;;;;;5072918;28;20444;-55
2022/10/14 03:42:42;;;;;;;10.60;8.00;;;13.80;99.90;;;;;;5073838;28;20495;-56
2022/10/14 03:45:10;;;;;;;10.43;9.10;;;13.80;99.90;;;;;;5071632;28;20450;-55
2022/10/14 03:47:37;;;;;;;10.53;9.47;;;13.70;99.90;;;;;;5072426;28;20478;-55
2022/10/14 03:50:05;;;;;;;12.20;8.40;;;13.80;99.90;;;;;;5072222;28;20451;-55
2022/10/14 03:52:32;;;;;;;11.50;9.03;;;13.70;99.90;;;;;;5071334;28;20469;-56
2022/10/14 03:55:01;;;;;;;10.13;7.70;;;13.60;99.90;;;;;;5072816;28;20484;-55
2022/10/14 03:57:28;;;;;;;14.43;8.87;;;13.60;99.90;;;;;;5073005;28;20931;-56
2022/10/14 03:59:55;;;;;;;13.43;9.00;;;13.50;99.90;;;;;;5071310;28;20455;-56
2022/10/14 04:02:22;;;;;;;13.20;8.73;;;13.50;99.90;;;;;;5072986;28;20857;-56
2022/10/14 04:04:49;;;;;;;11.97;9.77;;;13.50;99.90;;;;;;5073476;28;20447;-55
2022/10/14 04:07:16;;;;;;;10.30;8.70;;;13.50;99.90;;;;;;5071146;28;20487;-55
2022/10/14 04:09:43;;;;;;;12.53;9.87;;;13.50;99.90;;;;;;5073509;28;20454;-55
2022/10/14 04:12:12;;;;;;;11.60;9.40;;;13.50;99.90;;;;;;5073401;28;20472;-55
2022/10/14 04:14:39;;;;;;;9.70;8.80;;;13.60;99.90;;;;;;5071058;28;20444;-55
2022/10/14 04:17:06;;;;;;;10.63;9.63;;;13.60;99.90;;;;;;5072974;28;20459;-56
2022/10/14 04:19:33;;;;;;;14.97;10.10;;;13.70;99.90;;;;;;5073313;28;20451;-56
2022/10/14 04:22:00;;;;;;;12.20;10.70;;;13.80;99.90;;;;;;5071303;28;20464;-56
2022/10/14 04:24:27;;;;;;;15.00;11.03;;;13.80;99.90;;;;;;5073077;28;20455;-56
2022/10/14 04:26:54;;;;;;;14.53;10.20;;;13.80;99.90;;;;;;5073047;28;20806;-55
2022/10/14 04:29:23;;;;;;;13.77;10.10;;;13.80;99.90;;;;;;5070905;28;20451;-55
2022/10/14 04:31:50;;;;;;;10.47;9.30;;;13.70;99.90;;;;;;5072884;28;20468;-55
2022/10/14 04:34:17;;;;;;;11.60;10.40;;;13.80;99.90;;;;;;5072939;28;20458;-55
2022/10/14 04:36:44;;;;;;;15.63;10.70;;;13.70;99.90;;;;;;5070760;28;20479;-55
2022/10/14 04:39:11;;;;;;;15.93;9.40;;;13.70;99.90;;;;;;5072625;28;20875;-55
2022/10/14 04:41:38;;;;;;;13.30;10.00;;;13.70;99.90;;;;;;5072180;28;20445;-55
2022/10/14 04:44:06;;;;;;;14.13;10.83;;;13.70;99.90;;;;;;5071052;28;20950;-55
2022/10/14 04:46:34;;;;;;;12.60;11.13;;;13.80;99.90;;;;;;5072898;28;20944;-56
2022/10/14 04:49:01;;;;;;;18.03;11.60;;;13.80;99.90;;;;;;5072790;28;20441;-55
2022/10/14 04:51:28;;;;;;;11.47;10.03;;;13.80;99.90;;;;;;5071765;28;20455;-55
2022/10/14 04:53:56;;;;;;;11.77;10.63;;;13.80;99.90;;;;;;5073554;28;20464;-55
2022/10/14 04:56:23;;;;;;;17.40;10.70;;;13.80;99.90;;;;;;5072923;28;20472;-55
2022/10/14 04:58:50;;;;;;;12.07;9.93;;;13.80;99.90;;;;;;5071083;28;20451;-55
2022/10/14 05:01:17;;;;;;;12.27;10.30;;;13.80;99.90;;;;;;5073454;28;20813;-55
2022/10/14 05:03:47;;;;;;;11.40;10.20;;;13.70;99.90;;;;;;5072978;28;20530;-55
2022/10/14 05:06:14;;;;;;;15.07;10.13;;;13.70;99.90;;;;;;5071282;28;20667;-55
2022/10/14 05:08:41;;;;;;;12.27;10.20;;;13.80;99.90;;;;;;5073250;28;20453;-55
2022/10/14 05:11:08;;;;;;;13.03;11.73;;;13.80;99.90;;;;;;5073053;28;20454;-55
2022/10/14 05:13:35;;;;;;;11.57;10.37;;;13.90;99.90;;;;;;5070563;28;20475;-55
2022/10/14 05:16:03;;;;;;;12.27;10.97;;;13.80;99.90;;;;;;5072684;28;20571;-55
2022/10/14 05:18:30;;;;;;;18.17;13.03;;;13.90;99.90;;;;;;5073008;28;20428;-55
2022/10/14 05:20:59;;;;;;;16.03;10.67;;;13.90;99.90;;;;;;5070930;28;20452;-55
2022/10/14 05:23:27;;;;;;;12.33;11.13;;;13.90;99.90;;;;;;5072416;28;20490;-55
2022/10/14 05:25:54;;;;;;;11.93;10.70;;;14.00;99.90;;;;;;5072401;28;20798;-55
2022/10/14 05:28:21;;;;;;;11.50;10.13;;;13.90;99.90;;;;;;5071066;28;20452;-55
2022/10/14 05:30:48;;;;;;;11.63;10.50;;;13.80;99.90;;;;;;5072248;28;20815;-56
2022/10/14 05:33:16;;;;;;;16.70;10.43;;;13.90;99.90;;;;;;5071642;28;20460;-55
2022/10/14 05:35:43;;;;;;;17.40;11.10;;;13.90;99.90;;;;;;5070153;28;20484;-55
2022/10/14 05:38:12;;;;;;;13.27;11.27;;;14.00;99.90;;;;;;5071423;28;20452;-55
2022/10/14 05:40:39;;;;;;;13.00;11.30;;;14.00;99.90;;;;;;5070608;28;20990;-55
2022/10/14 05:43:06;;;;;;;12.90;11.17;;;14.00;99.90;;;;;;5069386;28;20468;-56
2022/10/14 05:45:33;;;;;;;12.10;11.00;;;14.00;99.90;;;;;;5071237;28;20551;-55
2022/10/14 05:48:01;;;;;;;14.60;10.73;;;13.90;99.90;;;;;;5070693;28;20575;-56
2022/10/14 05:50:28;;;;;;;14.17;12.70;;;13.90;99.90;;;;;;5069877;28;20444;-55
2022/10/14 05:52:55;;;;;;;12.73;11.23;;;13.90;99.90;;;;;;5071011;28;20466;-55
2022/10/14 05:55:23;;;;;;;12.97;11.10;;;13.90;99.90;;;;;;5071206;28;20490;-55
2022/10/14 05:57:55;;;;;;;12.27;10.63;;;14.00;99.90;;;;;;5069547;28;20448;-55
2022/10/14 06:00:22;;;;;;;12.60;11.00;;;14.10;99.90;;;;;;5071581;28;20797;-55
2022/10/14 06:02:49;;;;;;;15.63;12.40;;;14.10;99.90;;;;;;5071462;28;20460;-56
2022/10/14 06:05:17;;;;;;;17.37;11.50;;;14.10;99.90;;;;;;5069848;28;20448;-57
2022/10/14 06:07:44;;;;;;;11.00;9.30;;;14.10;99.90;;;;;;5071286;28;20529;-56
2022/10/14 06:10:11;;;;;;;13.00;10.60;;;14.10;99.90;;;;;;5071498;28;20532;-56
2022/10/14 06:12:39;;;;;;;10.43;8.97;;;14.10;99.90;;;;;;5068817;28;20563;-56
2022/10/14 06:15:07;;;;;;;13.40;9.67;;;14.10;99.90;;;;;;5071547;28;20781;-56
2022/10/14 06:17:35;;;;;;;12.67;10.17;;;14.20;99.90;;;;;;5071331;28;20463;-56
2022/10/14 06:20:02;;;;;;;12.10;11.00;;;14.20;99.90;;;;;;5069352;28;20532;-56
2022/10/14 06:22:29;;;;;;;11.37;8.87;;;14.30;99.90;;;;;;5070795;28;21025;-56
2022/10/14 06:24:56;;;;;;;11.90;9.97;;;14.30;99.90;;;;;;5072598;28;20452;-56
2022/10/14 06:27:24;;;;;;;13.03;9.77;;;14.30;99.90;;;;;;5072648;28;20533;-56
2022/10/14 06:29:52;;;;;;;10.27;9.27;;;14.30;99.90;;;;;;5075156;28;20531;-56
2022/10/14 06:32:19;;;;;;;19.23;12.00;;;14.30;99.90;;;;;;5075283;28;20555;-56
2022/10/14 06:34:46;;;;;;;13.03;9.80;;;14.30;99.90;;;;;;5071852;28;20475;-55
2022/10/14 06:37:13;;;;;;;11.40;10.23;;;14.30;99.90;;;;;;5073866;28;20472;-55
2022/10/14 06:39:43;;;;;;;11.70;9.60;;;14.30;99.90;;;;;;5073861;28;20945;-55
2022/10/14 06:42:10;;;;;;;16.47;9.87;;;14.30;99.90;;;;;;5071787;28;20472;-55
2022/10/14 06:44:37;;;;;;;11.60;10.20;;;14.30;99.90;;;;;;5074685;28;20802;-55
2022/10/14 06:47:06;;;;;;;13.73;10.17;;;14.30;99.90;;;;;;5073874;28;21013;-55
2022/10/14 06:49:33;;;;;;;11.73;10.57;;;14.40;99.90;;;;;;5072607;28;20452;-55
2022/10/14 06:52:01;;;;;;;12.37;9.43;;;14.30;99.90;;;;;;5074284;28;20518;-57
2022/10/14 06:54:28;;;;;;;13.23;10.20;;;14.30;99.90;;;;;;5074580;28;20454;-56
2022/10/14 06:56:55;;;;;;;11.53;9.30;;;14.40;99.90;;;;;;5072263;28;20472;-55
2022/10/14 06:59:22;;;;;;;11.50;9.80;;;14.40;99.90;;;;;;5074547;28;20444;-55
2022/10/14 07:01:49;;;;;;;18.27;9.70;;;14.40;99.90;;;;;;5073921;28;20469;-56
2022/10/14 07:04:18;;;;;;;11.23;10.03;;;14.40;99.90;;;;;;5071986;28;20452;-55
2022/10/14 07:06:45;;;;;;;12.67;8.93;;;14.50;99.90;;;;;;5074058;28;20436;-55
2022/10/14 07:09:12;;;;;;;14.27;11.20;;;14.50;99.90;;;;;;5074020;28;20444;-55
2022/10/14 07:11:41;;;;;;;11.93;10.70;;;14.60;99.90;;;;;;5071785;28;20444;-56
2022/10/14 07:14:09;;;;;;;11.73;8.53;;;14.50;99.90;;;;;;5074216;28;20452;-55
2022/10/14 07:16:36;;;;;;;12.90;9.27;;;14.60;99.90;;;;;;5074457;28;20487;-55
2022/10/14 07:19:03;;;;;;;10.43;9.33;;;14.50;99.90;;;;;;5071854;28;20444;-55
2022/10/14 07:21:31;;;;;;;12.57;9.90;;;14.60;99.90;;;;;;5073334;28;20448;-55
2022/10/14 07:23:58;;;;;;;13.83;10.07;;;14.60;99.90;;;;;;5074179;28;20452;-55
2022/10/14 07:26:26;;;;;;;11.60;9.13;;;14.60;99.90;;;;;;5071863;28;20443;-55
2022/10/14 07:28:54;;;;;;;15.40;9.47;;;14.70;99.90;;;;;;5074032;28;20444;-56
2022/10/14 07:31:26;;;;;;;15.30;8.90;;;14.70;99.90;;;;;;5073715;28;20970;-55
2022/10/14 07:33:53;;;;;;;12.27;8.80;;;14.70;99.90;;;;;;5071735;28;20807;-56
2022/10/14 07:36:20;;;;;;;12.67;8.53;;;14.80;99.90;;;;;;5072515;28;21183;-55
2022/10/14 07:38:48;;;;;;;10.00;8.70;;;14.90;99.90;;;;;;5072937;28;20954;-55
2022/10/14 07:41:18;;;;;;;12.73;8.60;;;14.90;99.90;;;;;;5071271;28;20440;-55
2022/10/14 07:43:45;;;;;;;10.17;9.27;;;15.10;99.90;;;;;;5073299;28;20906;-56
2022/10/14 07:46:13;;;;;;;10.90;9.57;;;15.20;99.90;;;;;;5073242;28;20448;-55
2022/10/14 07:48:41;;;;;;;12.07;9.23;;;15.40;99.90;;;;;;5070575;28;20486;-56
2022/10/14 07:51:09;;;;;;;10.13;8.53;;;15.40;99.90;;;;;;5073258;28;20928;-56
2022/10/14 07:53:37;;;;;;;11.00;8.90;;;15.30;99.90;;;;;;5073280;28;20499;-56
2022/10/14 07:56:05;;;;;;;11.97;9.07;;;15.40;99.90;;;;;;5070838;28;20483;-56
2022/10/14 07:58:32;;;;;;;8.53;7.47;;;15.30;99.90;;;;;;5073430;28;20448;-55
2022/10/14 08:01:00;;;;;;;9.17;8.23;;;15.20;99.90;;;;;;5072969;28;20456;-55
2022/10/14 08:03:27;;;;;;;9.03;8.20;;;15.30;99.90;;;;;;5070609;28;20473;-56
2022/10/14 08:06:01;;;;;;;11.17;8.80;;;15.20;99.90;;;;;;5073010;28;20455;-56
2022/10/14 08:08:28;;;;;;;9.30;8.00;;;15.30;99.90;;;;;;5073030;28;20444;-55
2022/10/14 08:11:04;;;;;;;10.90;8.27;;;15.30;99.90;;;;;;5070603;28;20451;-55
2022/10/14 08:13:33;;;;;;;10.23;8.20;;;15.40;99.90;;;;;;5072892;28;21094;-55
2022/10/14 08:16:00;;;;;;;10.80;8.63;;;15.50;99.90;;;;;;5073094;28;20448;-55
2022/10/14 08:18:28;;;;;;;9.97;7.83;;;15.40;99.90;;;;;;5070550;28;20440;-55
2022/10/14 08:20:55;;;;;;;8.03;6.50;;;15.30;99.90;;;;;;5073175;28;20547;-55
2022/10/14 08:23:22;;;;;;;10.37;6.97;;;15.40;99.90;;;;;;5072701;28;20464;-55
2022/10/14 08:25:49;;;;;;;9.33;7.90;;;15.50;99.90;;;;;;5070915;28;20447;-55
2022/10/14 08:28:16;;;;;;;8.13;6.90;;;15.40;99.90;;;;;;5072645;28;20903;-55
2022/10/14 08:30:46;;;;;;;12.10;7.50;;;15.50;99.90;;;;;;5072540;28;20448;-55
2022/10/14 08:33:14;;;;;;;18.40;8.30;;;15.50;99.90;;;;;;5071178;28;20469;-55
2022/10/14 08:35:41;;;;;;;9.43;7.50;;;15.50;99.90;;;;;;5072479;28;20440;-56
2022/10/14 08:38:08;;;;;;;20.77;7.50;;;15.60;99.90;;;;;;5072267;28;20472;-56
2022/10/14 08:40:49;;;;;;;8.10;7.33;;;15.70;99.90;;;;;;5069790;28;20459;-55
2022/10/14 08:43:24;;;;;;;8.20;7.40;;;15.80;99.90;;;;;;5072132;28;20482;-55
2022/10/14 08:45:57;;;;;;;8.53;6.33;;;15.80;99.90;;;;;;5072466;28;20434;-55
2022/10/14 08:48:26;;;;;;;13.70;7.00;;;16.00;99.90;;;;;;5068922;28;20476;-55
2022/10/14 08:50:57;;;;;;;9.33;6.50;;;15.90;99.90;;;;;;5071948;28;20449;-55
2022/10/14 08:53:28;;;;;;;10.27;7.03;;;15.90;99.90;;;;;;5072307;28;20469;-56
2022/10/14 08:55:59;;;;;;;5.93;4.93;;;16.00;99.90;;;;;;5070314;28;20436;-55
2022/10/14 08:58:31;;;;;;;9.33;5.53;;;16.00;99.90;;;;;;5072290;28;20432;-55
2022/10/14 09:01:04;;;;;;;10.20;6.53;;;16.00;99.90;;;;;;5072466;28;20826;-56
2022/10/14 09:03:33;;;;;;;7.83;6.20;;;16.10;99.90;;;;;;5070127;28;20468;-55
2022/10/14 09:06:03;;;;;;;6.53;5.63;;;16.10;99.90;;;;;;5071724;28;20510;-55
2022/10/14 09:08:37;;;;;;;9.23;6.03;;;16.20;99.90;;;;;;5071717;28;20915;-56
2022/10/14 09:11:05;;;;;;;8.83;5.90;;;16.20;99.90;;;;;;5069928;28;20463;-56
2022/10/14 09:13:36;;;;;;;7.37;5.10;;;16.10;99.90;;;;;;5071646;28;20525;-55
2022/10/14 09:16:12;;;;;;;7.07;5.40;;;16.20;99.90;;;;;;5071825;28;20433;-56
2022/10/14 09:18:43;;;;;;;9.10;5.13;;;16.30;99.90;;;;;;5069214;28;20443;-55
2022/10/14 09:21:31;;;;;;;7.50;5.03;;;16.30;99.90;;;;;;5071527;28;20452;-55
2022/10/14 09:24:02;;;;;;;5.67;5.17;;;16.30;99.90;;;;;;5071816;28;20431;-56
2022/10/14 09:26:40;;;;;;;6.13;4.97;;;16.30;99.90;;;;;;5068947;28;20947;-55
2022/10/14 09:29:20;;;;;;;6.60;5.00;;;16.30;99.90;;;;;;5071751;28;20452;-55
2022/10/14 09:31:49;;;;;;;11.93;6.50;;;16.40;99.90;;;;;;5070837;28;20471;-56
2022/10/14 09:34:19;;;;;;;9.00;5.20;;;16.30;99.90;;;;;;5071602;28;20580;-55
2022/10/14 09:36:48;;;;;;;6.80;4.60;;;16.40;99.90;;;;;;5071410;28;20491;-56
2022/10/14 09:39:16;;;;;;;6.43;4.77;;;16.50;99.90;;;;;;5069265;28;20543;-56
2022/10/14 09:41:46;;;;;;;4.70;4.30;;;16.60;99.90;;;;;;5070557;28;20468;-56
2022/10/14 09:44:22;;;;;;;4.47;4.00;;;16.70;99.90;;;;;;5071583;28;20531;-56
2022/10/14 09:46:55;;;;;;;6.80;4.50;;;16.60;99.90;;;;;;5069124;28;20480;-55
2022/10/14 09:49:31;;;;;;;4.97;4.33;;;16.70;99.90;;;;;;5071590;28;20499;-55
2022/10/14 09:52:01;;;;;;;5.00;4.50;;;16.90;99.90;;;;;;5071879;28;20471;-55
2022/10/14 09:54:30;;;;;;;5.60;4.60;;;17.00;99.90;;;;;;5069281;28;20459;-56
2022/10/14 09:57:04;;;;;;;9.50;4.60;;;16.90;99.90;;;;;;5071572;28;20484;-56
2022/10/14 09:59:32;;;;;;;4.83;4.43;;;17.00;99.90;;;;;;5070953;28;20900;-56
2022/10/14 10:02:04;;;;;;;7.33;4.90;;;17.00;99.90;;;;;;5069240;28;20475;-55
2022/10/14 10:04:36;;;;;;;5.23;4.63;;;17.30;99.90;;;;;;5071569;28;20428;-55
2022/10/14 10:07:05;;;;;;;7.57;4.50;;;;;;;;;;5071179;28;20531;-55
2022/10/14 10:09:33;;;;;;;6.53;4.27;;;17.60;99.90;;;;;;5069131;28;20444;-55
2022/10/14 10:12:00;;;;;;;4.27;3.87;;;17.90;99.90;;;;;;5071225;28;20468;-56
2022/10/14 10:14:31;;;;;;;7.17;4.17;;;18.00;99.90;;;;;;5071124;28;20455;-56
2022/10/14 10:17:18;;;;;;;5.00;3.97;;;18.20;99.90;;;;;;5069065;28;20569;-56
2022/10/14 10:19:50;;;;;;;8.07;4.03;;;18.00;99.90;;;;;;5071546;28;20432;-56
2022/10/14 10:22:23;;;;;;;5.83;4.50;;;18.10;99.90;;;;;;5070758;28;20472;-56
2022/10/14 10:24:51;;;;;;;6.50;4.50;;;18.10;99.90;;;;;;5068664;28;20933;-55
2022/10/14 10:27:25;;;;;;;6.40;4.13;;;18.00;99.90;;;;;;5070894;28;20807;-55
2022/10/14 10:29:54;;;;;;;4.47;4.07;;;18.00;99.90;;;;;;5071122;28;20874;-56
2022/10/14 10:32:32;;;;;;;6.50;4.73;;;18.00;99.90;;;;;;5068929;28;20560;-55
2022/10/14 10:35:20;;;;;;;5.40;4.47;;;18.00;99.90;;;;;;5071097;28;20435;-56
2022/10/14 10:37:59;;;;;;;7.03;4.73;;;18.00;99.90;;;;;;5070109;28;20464;-56
2022/10/14 10:40:38;;;;;;;5.90;4.50;;;18.10;99.90;;;;;;5068062;28;20439;-56
2022/10/14 10:43:43;;;;;;;7.73;4.67;;;18.30;99.90;;;;;;5070454;28;20475;-56
2022/10/14 10:46:43;;;;;;;4.87;4.47;;;18.10;99.90;;;;;;5006700;28;20435;-56
2022/10/14 10:49:20;;;;;;;6.93;4.30;;;18.10;99.90;;;;;;5066998;28;20510;-56
2022/10/14 10:51:54;;;;;;;4.70;4.30;;;18.10;99.90;;;;;;5070307;28;20464;-56
2022/10/14 10:54:30;;;;;;;8.07;4.40;;;17.80;99.90;;;;;;5068646;28;20857;-55
2022/10/14 10:57:01;;;;;;;5.50;4.30;;;17.80;99.90;;;;;;5070533;28;20479;-55
2022/10/14 10:59:48;;;;;;;5.73;3.93;;;17.70;99.90;;;;;;5070493;28;20439;-55
2022/10/14 11:02:50;;;;;;;14.83;5.33;;;17.70;99.90;;;;;;5068624;28;20464;-55
2022/10/14 11:05:32;;;;;;;5.50;4.53;;;17.80;99.90;;;;;;5070142;28;20519;-56
2022/10/14 11:14:11;;;;;;;6.30;4.13;;;17.70;99.90;;;;;;5073798;28;20428;-56
2022/10/14 11:16:45;;;;;;;4.10;3.70;;;17.70;99.90;;;;;;5071582;28;20466;-55
2022/10/14 11:19:20;;;;;;;5.90;4.10;;;17.60;99.90;;;;;;5073639;28;20553;-55
2022/10/14 11:21:56;;;;;;;6.80;4.60;;;17.60;99.90;;;;;;5073230;28;20463;-55
2022/10/14 11:24:28;;;;;;;7.33;5.13;;;17.30;99.90;;;;;;5071599;28;20428;-55
2022/10/14 11:27:07;;;;;;;7.03;4.00;;;17.00;99.90;;;;;;5072883;28;20433;-55
2022/10/14 11:29:56;;;;;;;6.83;4.70;;;16.80;99.90;;;;;;5074000;28;20535;-55
2022/10/14 11:32:29;;;;;;;4.83;4.37;;;16.80;99.90;;;;;;5061647;28;20983;-55
2022/10/14 11:35:10;;;;;;;8.90;4.97;;;16.90;99.90;;;;;;5073482;28;20424;-55
2022/10/14 11:37:51;;;;;;;6.00;4.77;;;16.90;99.90;;;;;;5071104;28;20475;-55
2022/10/14 11:40:24;;;;;;;5.97;4.63;;;16.90;99.90;;;;;;5072531;28;20506;-55
2022/10/14 11:43:06;;;;;;;6.43;4.57;;;17.00;99.90;;;;;;5073309;28;20987;-55
2022/10/14 11:45:45;;;;;;;5.83;4.07;;;17.10;99.90;;;;;;5072161;28;20429;-55
2022/10/14 11:48:30;;;;;;;4.80;4.30;;;17.10;99.90;;;;;;5073457;28;20562;-55
2022/10/14 11:51:06;;;;;;;4.63;4.23;;;17.10;99.90;;;;;;5079504;28;20443;-55
2022/10/14 11:53:45;;;;;;;4.70;3.87;;;17.30;99.90;;;;;;5084504;28;20459;-54
2022/10/14 11:56:24;;;;;;;5.37;4.00;;;17.50;99.90;;;;;;5074854;28;20432;-55
2022/10/14 11:58:53;;;;;;;4.47;3.90;;;17.50;99.90;;;;;;5082875;28;20470;-54
2022/10/14 12:01:29;;;;;;;4.17;3.73;;;17.50;99.90;;;;;;5074615;28;20453;-55
2022/10/14 12:04:02;;;;;;;6.40;4.30;;;17.70;99.90;;;;;;5091319;28;20522;-60
2022/10/14 12:06:35;;;;;;;10.30;4.13;;;17.70;99.90;;;;;;5079537;28;21004;-55
2022/10/14 12:09:13;;;;;;;4.23;3.83;;;17.90;99.90;;;;;;5073011;28;20452;-56
2022/10/14 12:11:44;;;;;;;5.10;4.10;;;17.90;99.90;;;;;;5074920;28;20882;-56
2022/10/14 12:14:16;;;;;;;7.60;4.10;;;17.90;99.90;;;;;;5083696;28;20794;-53
2022/10/14 12:16:46;;;;;;;5.93;4.80;;;17.80;99.90;;;;;;5077116;28;20466;-56
2022/10/14 12:19:18;;;;;;;8.27;4.90;;;17.90;99.90;;;;;;5075251;28;20480;-56
2022/10/14 12:21:51;;;;;;;6.13;3.60;;;18.00;99.90;;;;;;5076177;28;20483;-55
2022/10/14 12:24:22;;;;;;;3.40;3.20;;;18.20;99.90;;;;;;5071382;28;20449;-57
2022/10/14 12:26:52;;;;;;;4.30;4.00;;;18.40;99.90;;;;;;5073295;28;21086;-52
2022/10/14 12:29:21;;;;;;;4.20;3.90;;;;;;;;;;5074408;28;20539;-56
2022/10/14 12:31:51;;;;;;;4.67;3.33;;;18.70;99.90;;;;;;5071972;28;20476;-52
2022/10/14 12:34:34;;;;;;;3.87;3.57;;;18.50;99.90;;;;;;5070182;28;20455;-55
2022/10/14 12:37:48;;;;;;;5.73;3.60;;;18.70;99.90;;;;;;5077125;28;21031;-55
2022/10/14 12:40:30;;;;;;;8.63;4.20;;;19.00;99.90;;;;;;5077437;28;20523;-51
2022/10/14 12:43:03;;;;;;;3.60;3.30;;;19.00;99.90;;;;;;5075713;28;20486;-56
2022/10/14 12:45:33;;;;;;;4.00;3.30;;;18.90;99.90;;;;;;5075570;28;20923;-56
2022/10/14 12:48:14;;;;;;;4.67;4.17;;;18.70;99.90;;;;;;5076346;28;20475;-55
2022/10/14 12:50:45;;;;;;;3.43;2.87;;;18.90;99.90;;;;;;5082427;28;20428;-56
2022/10/14 12:53:22;;;;;;;4.70;3.23;;;19.00;99.90;;;;;;5069665;28;20460;-56
2022/10/14 12:55:53;;;;;;;4.93;3.10;;;19.10;99.90;;;;;;5072411;28;20456;-58
2022/10/14 12:58:27;;;;;;;5.33;3.23;;;19.10;99.90;;;;;;5081610;28;20788;-57
2022/10/14 13:01:00;;;;;;;2.90;2.67;;;19.00;99.90;;;;;;5067684;28;21059;-56
2022/10/14 13:03:31;;;;;;;4.50;3.00;;;19.00;99.90;;;;;;5070229;28;20693;-52
2022/10/14 13:06:29;;;;;;;4.40;3.20;;;19.00;99.90;;;;;;5090095;28;20432;-52